Terminal Aerodrome Forecast
Issued by NWS

Home | Current Version | Previous Version | Text Only | Print | Product List | Glossary On
Versions: 1 2 3 4 5 6 7 8 9 10 11 12 13
000
FTUS42 TJSJ 260500
TAFJMZ
TAF
TJMZ 260532Z 2606/2706 06003KT P6SM FEW030 SCT060 SCT090
     FM261400 08011KT P6SM FEW025 SCT040 PROB30 2618/2622 -SHRA
      BKN025
     FM262200 06006KT P6SM SCT025 SCT040
      AMD NOT SKED TIL 261100=

USA.gov is the U.S. government's official web portal to all federal, state and local government web resources and services.